createdAt,value
2019-02-27T00:01:23.715Z,96508.41
2019-02-27T00:03:53.690Z,96514.48
2019-02-27T00:06:23.558Z,96506.73
2019-02-27T00:08:53.558Z,96510.97
2019-02-27T00:11:23.457Z,96514.69
2019-02-27T00:13:57.830Z,96510.17
2019-02-27T00:16:25.738Z,96503.02
2019-02-27T00:18:58.587Z,96504.32
2019-02-27T00:21:28.244Z,96504.06
2019-02-27T00:23:58.090Z,96501.48
2019-02-27T00:26:28.097Z,96497.90
2019-02-27T00:28:57.980Z,96490.55
2019-02-27T00:31:27.925Z,96485.60
2019-02-27T00:33:59.920Z,96481.95
2019-02-27T00:36:29.404Z,96487.51
2019-02-27T00:38:59.390Z,96484.19
2019-02-27T00:41:29.370Z,96493.70
2019-02-27T00:44:01.455Z,96491.28
2019-02-27T00:46:30.949Z,96496.99
2019-02-27T00:49:00.905Z,96495.93
2019-02-27T00:51:30.934Z,96496.64
2019-02-27T00:54:00.754Z,96489.89
2019-02-27T00:56:30.659Z,96490.20
2019-02-27T00:59:00.820Z,96483.36
2019-02-27T01:01:31.928Z,96484.55
2019-02-27T01:04:02.496Z,96478.16
2019-02-27T01:06:32.603Z,96477.80
2019-02-27T01:09:03.883Z,96470.44
2019-02-27T01:11:36.925Z,96469.46
2019-02-27T01:14:06.881Z,96466.56
2019-02-27T01:16:36.896Z,96466.55
2019-02-27T01:19:06.819Z,96459.89
2019-02-27T01:21:36.780Z,96457.20
2019-02-27T01:24:06.586Z,96447.75
2019-02-27T01:26:36.532Z,96453.05
2019-02-27T01:29:06.497Z,96455.29
2019-02-27T01:31:36.539Z,96447.11
2019-02-27T01:34:11.118Z,96447.84
2019-02-27T01:36:38.012Z,96434.56
2019-02-27T01:39:08.951Z,96435.03
2019-02-27T01:41:40.381Z,96433.31
2019-02-27T01:44:11.101Z,96432.02
2019-02-27T01:46:41.980Z,96423.08
2019-02-27T01:49:15.927Z,96414.97
2019-02-27T01:51:43.796Z,96414.80
2019-02-27T01:54:15.055Z,96408.96
2019-02-27T01:56:45.499Z,96413.60
2019-02-27T01:59:16.966Z,96420.34
2019-02-27T02:01:48.310Z,96412.17
2019-02-27T02:04:20.309Z,96413.16
2019-02-27T02:06:50.008Z,96411.86
2019-02-27T02:09:39.165Z,96410.89
2019-02-27T02:12:18.549Z,96417.31
2019-02-27T02:15:08.949Z,96404.00
2019-02-27T02:18:20.215Z,96393.91
2019-02-27T02:21:20.958Z,96398.00
2019-02-27T02:24:37.073Z,96405.34
2019-02-27T02:27:28.476Z,96398.45
2019-02-27T02:30:21.366Z,96394.00
2019-02-27T02:33:10.556Z,96388.88
2019-02-27T02:36:36.853Z,96390.12
2019-02-27T02:39:31.990Z,96379.92
2019-02-27T02:42:33.453Z,96386.28
2019-02-27T02:45:32.808Z,96381.70
2019-02-27T02:48:19.289Z,96377.61
2019-02-27T02:51:16.223Z,96371.47
2019-02-27T02:54:19.257Z,96371.95
2019-02-27T02:57:05.150Z,96373.02
2019-02-27T03:00:10.918Z,96371.92
2019-02-27T03:03:23.897Z,96361.94
2019-02-27T03:06:35.138Z,96366.91
2019-02-27T03:10:08.126Z,96363.78
2019-02-27T03:12:53.139Z,96362.32
2019-02-27T03:15:47.693Z,96363.34
2019-02-27T03:18:47.199Z,96350.12
2019-02-27T03:21:32.988Z,96349.58
2019-02-27T03:24:41.314Z,96358.22
2019-02-27T03:27:41.855Z,96360.16
2019-02-27T03:31:16.311Z,96358.30
2019-02-27T03:34:16.870Z,96359.03
2019-02-27T03:37:26.862Z,96361.88
2019-02-27T03:40:10.725Z,96359.88
2019-02-27T03:43:02.918Z,96357.36
2019-02-27T03:46:25.170Z,96356.94
2019-02-27T03:49:45.399Z,96354.68
2019-02-27T03:52:43.932Z,96354.78
2019-02-27T03:55:57.019Z,96355.44
2019-02-27T03:58:39.397Z,96354.45
2019-02-27T04:01:36.150Z,96355.88
2019-02-27T04:05:07.136Z,96359.89
2019-02-27T04:08:08.951Z,96357.81
2019-02-27T04:10:38.862Z,96360.37
2019-02-27T04:13:08.866Z,96352.86
2019-02-27T04:15:38.827Z,96350.16
2019-02-27T04:18:07.284Z,96346.28
2019-02-27T04:20:37.188Z,96353.75
2019-02-27T04:23:11.292Z,96359.38
2019-02-27T04:25:38.659Z,96351.16
2019-02-27T04:28:08.590Z,96351.64
2019-02-27T04:30:39.014Z,96351.44
2019-02-27T04:33:09.085Z,96353.20
2019-02-27T04:35:39.655Z,96350.41
2019-02-27T04:38:10.030Z,96353.67
2019-02-27T04:40:41.735Z,96346.53
2019-02-27T04:43:12.545Z,96357.30
2019-02-27T04:45:43.923Z,96359.48
2019-02-27T04:48:14.071Z,96356.26
2019-02-27T04:50:45.010Z,96355.78
2019-02-27T04:53:14.970Z,96356.59
2019-02-27T04:55:44.862Z,96357.67
2019-02-27T04:58:14.751Z,96350.77
2019-02-27T05:00:44.791Z,96351.86
2019-02-27T05:03:14.623Z,96351.58
2019-02-27T05:05:44.564Z,96353.53
2019-02-27T05:08:14.440Z,96352.34
2019-02-27T05:10:44.386Z,96350.41
2019-02-27T05:13:14.369Z,96350.92
2019-02-27T05:15:44.287Z,96350.75
2019-02-27T05:18:15.226Z,96342.84
2019-02-27T05:20:45.824Z,96347.94
2019-02-27T05:23:15.741Z,96346.98
2019-02-27T05:25:45.658Z,96355.78
2019-02-27T05:28:15.674Z,96355.34
2019-02-27T05:30:45.941Z,96355.02
2019-02-27T05:33:15.872Z,96345.08
2019-02-27T05:35:45.694Z,96351.13
2019-02-27T05:38:15.577Z,96349.67
2019-02-27T05:40:45.398Z,96346.76
2019-02-27T05:43:15.272Z,96355.19
2019-02-27T05:45:45.116Z,96352.16
2019-02-27T05:48:15.082Z,96355.45
2019-02-27T05:50:44.976Z,96354.72
2019-02-27T05:53:14.957Z,96343.75
2019-02-27T05:55:44.836Z,96358.41
2019-02-27T05:58:15.880Z,96347.22
2019-02-27T06:00:45.787Z,96349.70
2019-02-27T06:03:15.893Z,96353.66
2019-02-27T06:05:49.778Z,96353.97
2019-02-27T06:08:18.982Z,96353.55
2019-02-27T06:10:48.897Z,96353.91
2019-02-27T06:13:18.819Z,96362.69
2019-02-27T06:15:49.298Z,96359.02
2019-02-27T06:18:22.469Z,96360.83
2019-02-27T06:20:50.980Z,96368.39
2019-02-27T06:23:21.426Z,96371.06
2019-02-27T06:25:51.331Z,96362.43
2019-02-27T06:28:21.453Z,96360.55
2019-02-27T06:30:51.386Z,96357.02
2019-02-27T06:33:21.219Z,96360.98
2019-02-27T06:35:51.109Z,96361.70
2019-02-27T06:38:25.218Z,96361.22
2019-02-27T06:40:52.763Z,96366.59
2019-02-27T06:43:27.146Z,96360.95
2019-02-27T06:45:54.419Z,96364.97
2019-02-27T06:48:24.248Z,96368.27
2019-02-27T06:50:54.193Z,96368.48
2019-02-27T06:53:24.016Z,96367.65
2019-02-27T06:55:53.889Z,96367.94
2019-02-27T06:58:23.722Z,96370.02
2019-02-27T07:00:53.631Z,96372.11
2019-02-27T07:03:23.533Z,96379.62
2019-02-27T07:05:53.394Z,96368.16
2019-02-27T07:08:24.352Z,96377.12
2019-02-27T07:10:57.306Z,96371.66
2019-02-27T07:13:26.800Z,96372.49
2019-02-27T07:15:57.586Z,96371.23
2019-02-27T07:18:27.482Z,96380.42
2019-02-27T07:20:58.408Z,96378.63
2019-02-27T07:23:30.134Z,96376.58
2019-02-27T07:26:00.054Z,96378.91
2019-02-27T07:28:29.908Z,96379.02
2019-02-27T07:30:59.778Z,96367.20
2019-02-27T07:33:30.937Z,96365.53
2019-02-27T07:36:03.439Z,96367.80
2019-02-27T07:38:32.450Z,96371.14
2019-02-27T07:41:02.433Z,96367.36
2019-02-27T07:43:32.373Z,96355.23
2019-02-27T07:46:02.361Z,96357.30
2019-02-27T07:48:32.301Z,96360.05
2019-02-27T07:51:02.210Z,96353.47
2019-02-27T07:53:32.072Z,96351.72
2019-02-27T07:56:01.916Z,96353.68
2019-02-27T07:58:33.636Z,96356.12
2019-02-27T08:01:04.643Z,96349.48
2019-02-27T08:03:35.956Z,96348.63
2019-02-27T08:06:05.842Z,96353.61
2019-02-27T08:08:35.863Z,96363.28
2019-02-27T08:11:06.833Z,96359.95
2019-02-27T08:13:36.847Z,96358.88
2019-02-27T08:16:07.063Z,96365.14
2019-02-27T08:18:38.159Z,96357.66
2019-02-27T08:21:08.311Z,96354.46
2019-02-27T08:23:39.334Z,96353.84
2019-02-27T08:26:09.310Z,96358.20
2019-02-27T08:28:39.189Z,96353.86
2019-02-27T08:31:09.195Z,96350.47
2019-02-27T08:33:39.222Z,96350.95
2019-02-27T08:36:09.239Z,96352.05
2019-02-27T08:38:39.232Z,96356.22
2019-02-27T08:41:09.171Z,96344.34
2019-02-27T08:43:41.193Z,96346.84
2019-02-27T08:46:10.640Z,96335.03
2019-02-27T08:48:40.622Z,96339.91
2019-02-27T08:51:10.529Z,96338.53
2019-02-27T08:53:40.463Z,96331.20
2019-02-27T08:56:12.398Z,96329.83
2019-02-27T08:58:42.010Z,96323.89
2019-02-27T09:01:12.439Z,96324.00
2019-02-27T09:03:42.336Z,96320.45
2019-02-27T09:06:12.352Z,96320.35
2019-02-27T09:08:44.007Z,96316.36
2019-02-27T09:11:14.717Z,96314.78
2019-02-27T09:13:44.828Z,96315.73
2019-02-27T09:16:14.691Z,96319.81
2019-02-27T09:18:44.680Z,96318.63
2019-02-27T09:21:14.616Z,96312.26
2019-02-27T09:23:44.809Z,96310.30
2019-02-27T09:26:14.705Z,96309.75
2019-02-27T09:28:45.201Z,96304.66
2019-02-27T09:31:15.167Z,96301.82
2019-02-27T09:33:45.077Z,96298.55
2019-02-27T09:36:15.094Z,96296.90
2019-02-27T09:38:45.261Z,96295.31
2019-02-27T09:41:15.246Z,96284.59
2019-02-27T09:43:45.364Z,96281.66
2019-02-27T09:46:18.996Z,96281.72
2019-02-27T09:48:46.964Z,96277.84
2019-02-27T09:51:19.125Z,96276.77
2019-02-27T09:53:48.391Z,96278.48
2019-02-27T09:56:18.304Z,96274.89
2019-02-27T09:58:48.179Z,96277.83
2019-02-27T10:01:19.022Z,96275.45
2019-02-27T10:03:48.972Z,96268.31
2019-02-27T10:06:18.992Z,96270.02
2019-02-27T10:08:48.998Z,96267.98
2019-02-27T10:11:21.565Z,96262.77
2019-02-27T10:13:50.503Z,96263.18
2019-02-27T10:16:20.347Z,96254.72
2019-02-27T10:18:54.783Z,96256.30
2019-02-27T10:21:22.038Z,96256.14
2019-02-27T10:23:51.998Z,96252.74
2019-02-27T10:26:22.663Z,96251.75
2019-02-27T10:28:52.617Z,96245.07
2019-02-27T10:31:22.626Z,96242.78
2019-02-27T10:33:52.647Z,96239.62
2019-02-27T10:36:22.847Z,96238.73
2019-02-27T10:38:52.809Z,96237.67
2019-02-27T10:41:22.803Z,96233.88
2019-02-27T10:43:53.969Z,96239.85
2019-02-27T10:46:24.433Z,96230.52
2019-02-27T10:48:54.533Z,96229.72
2019-02-27T10:51:24.390Z,96220.67
2019-02-27T10:53:54.427Z,96218.97
2019-02-27T10:56:24.864Z,96221.99
2019-02-27T10:58:54.806Z,96219.38
2019-02-27T11:01:25.877Z,96216.45
2019-02-27T11:03:55.847Z,96216.15
2019-02-27T11:06:33.695Z,96208.38
2019-02-27T11:08:57.376Z,96203.98
2019-02-27T11:11:27.216Z,96201.53
2019-02-27T11:13:57.148Z,96200.16
2019-02-27T11:16:27.984Z,96197.58
2019-02-27T11:18:57.934Z,96192.55
2019-02-27T11:21:30.875Z,96190.56
2019-02-27T11:24:00.733Z,96185.54
2019-02-27T11:26:33.227Z,96186.98
2019-02-27T11:29:02.488Z,96179.70
2019-02-27T11:31:32.718Z,96173.93
2019-02-27T11:34:05.039Z,96176.72
2019-02-27T11:36:34.996Z,96163.24
2019-02-27T11:39:06.326Z,96170.20
2019-02-27T11:44:14.292Z,96161.88
2019-02-27T11:46:44.728Z,96157.77
2019-02-27T11:49:14.661Z,96154.09
2019-02-27T11:51:44.715Z,96152.03
2019-02-27T11:54:14.645Z,96140.02
2019-02-27T11:56:44.672Z,96141.31
2019-02-27T11:59:14.696Z,96140.90
2019-02-27T12:01:45.077Z,96134.92
2019-02-27T12:04:19.261Z,96128.63
2019-02-27T12:06:46.600Z,96126.59
2019-02-27T12:09:16.607Z,96124.42
2019-02-27T12:11:48.769Z,96117.27
2019-02-27T12:14:19.002Z,96111.06
2019-02-27T12:16:51.799Z,96107.23
2019-02-27T12:19:20.842Z,96100.31
2019-02-27T12:21:50.765Z,96095.14
2019-02-27T12:24:20.605Z,96101.13
2019-02-27T12:26:50.567Z,96095.08
2019-02-27T12:29:20.588Z,96091.73
2019-02-27T12:31:50.497Z,96083.01
2019-02-27T12:34:20.530Z,96081.34
2019-02-27T12:36:52.644Z,96082.06
2019-02-27T12:39:22.288Z,96074.03
2019-02-27T12:41:52.200Z,96063.23
2019-02-27T12:44:22.242Z,96060.14
2019-02-27T12:46:52.168Z,96065.60
2019-02-27T12:49:22.063Z,96058.55
2019-02-27T12:51:51.977Z,96056.26
2019-02-27T12:54:21.920Z,96054.39
2019-02-27T12:56:51.754Z,96045.92
2019-02-27T12:59:21.699Z,96048.16
2019-02-27T13:01:51.903Z,96044.18
2019-02-27T13:04:21.921Z,96036.98
2019-02-27T13:06:51.775Z,96037.98
2019-02-27T13:09:24.493Z,96037.81
2019-02-27T13:11:53.317Z,96035.88
2019-02-27T13:14:23.295Z,96030.98
2019-02-27T13:16:53.284Z,96027.00
2019-02-27T13:19:23.219Z,96020.13
2019-02-27T13:21:55.001Z,96014.30
2019-02-27T13:24:24.689Z,96010.94
2019-02-27T13:26:54.610Z,96011.70
2019-02-27T13:29:24.609Z,96004.15
2019-02-27T13:31:56.489Z,95996.22
2019-02-27T13:34:26.021Z,95997.85
2019-02-27T13:36:55.936Z,95996.69
2019-02-27T13:39:26.336Z,95995.08
2019-02-27T13:41:56.332Z,95991.52
2019-02-27T13:44:26.207Z,95993.98
2019-02-27T13:46:57.004Z,95983.23
2019-02-27T13:49:27.479Z,95976.44
2019-02-27T13:51:57.510Z,95973.31
2019-02-27T13:54:27.424Z,95970.16
2019-02-27T13:56:57.454Z,95967.33
2019-02-27T13:59:27.406Z,95964.73
2019-02-27T14:02:03.445Z,95950.81
2019-02-27T14:04:29.040Z,95957.09
2019-02-27T14:06:59.016Z,95958.80
2019-02-27T14:09:29.006Z,95960.78
2019-02-27T14:11:59.416Z,95955.23
2019-02-27T14:14:29.352Z,95952.38
2019-02-27T14:16:59.436Z,95945.20
2019-02-27T14:19:30.328Z,95941.53
2019-02-27T14:22:00.541Z,95932.59
2019-02-27T14:24:30.479Z,95928.45
2019-02-27T14:27:00.417Z,95923.81
2019-02-27T14:29:30.703Z,95923.66
2019-02-27T14:32:01.861Z,95923.84
2019-02-27T14:34:31.877Z,95920.27
2019-02-27T14:37:01.795Z,95919.15
2019-02-27T14:39:31.823Z,95919.74
2019-02-27T14:42:01.650Z,95922.20
2019-02-27T14:44:32.144Z,95914.19
2019-02-27T14:47:02.247Z,95914.68
2019-02-27T14:49:32.074Z,95912.74
2019-02-27T14:52:02.008Z,95914.22
2019-02-27T14:54:31.983Z,95905.97
2019-02-27T14:57:01.814Z,95910.02
2019-02-27T14:59:31.796Z,95901.47
2019-02-27T15:02:01.774Z,95901.88
2019-02-27T15:04:33.423Z,95892.87
2019-02-27T15:07:04.553Z,95889.84
2019-02-27T15:09:36.542Z,95890.41
2019-02-27T15:12:06.223Z,95886.23
2019-02-27T15:14:36.323Z,95881.08
2019-02-27T15:17:06.241Z,95883.91
2019-02-27T15:19:36.155Z,95885.00
2019-02-27T15:22:06.288Z,95882.61
2019-02-27T15:24:36.194Z,95877.47
2019-02-27T15:27:06.276Z,95879.06
2019-02-27T15:29:36.928Z,95877.81
2019-02-27T15:32:07.077Z,95880.08
2019-02-27T15:34:36.901Z,95878.72
2019-02-27T15:37:07.048Z,95866.19
2019-02-27T15:39:36.906Z,95867.89
2019-02-27T15:42:09.702Z,95861.33
2019-02-27T15:44:45.913Z,95852.80
2019-02-27T15:47:15.980Z,95851.12
2019-02-27T15:49:48.808Z,95848.12
2019-02-27T15:52:18.703Z,95847.73
2019-02-27T15:54:48.641Z,95850.45
2019-02-27T15:57:18.622Z,95847.48
2019-02-27T15:59:48.591Z,95849.94
2019-02-27T16:02:18.479Z,95843.19
2019-02-27T16:04:48.402Z,95850.72
2019-02-27T16:07:18.352Z,95849.36
2019-02-27T16:09:48.338Z,95842.33
2019-02-27T16:12:19.894Z,95844.34
2019-02-27T16:14:49.844Z,95840.92
2019-02-27T16:17:19.791Z,95845.64
2019-02-27T16:19:49.721Z,95847.42
2019-02-27T16:22:19.780Z,95846.91
2019-02-27T16:24:49.709Z,95841.52
2019-02-27T16:27:19.727Z,95847.23
2019-02-27T16:29:49.641Z,95851.29
2019-02-27T16:32:20.238Z,95855.26
2019-02-27T16:34:50.380Z,95858.91
2019-02-27T16:37:22.812Z,95852.26
2019-02-27T16:39:52.042Z,95856.02
2019-02-27T16:42:21.981Z,95850.91
2019-02-27T16:44:54.359Z,95853.86
2019-02-27T16:47:23.820Z,95852.30
2019-02-27T16:49:54.804Z,95847.20
2019-02-27T16:52:24.784Z,95855.28
2019-02-27T16:54:54.782Z,95850.96
2019-02-27T16:57:24.950Z,95841.95
2019-02-27T16:59:54.957Z,95850.00
2019-02-27T17:02:24.958Z,95843.39
2019-02-27T17:04:54.898Z,95844.00
2019-02-27T17:07:26.575Z,95841.21
2019-02-27T17:09:56.447Z,95840.41
2019-02-27T17:12:26.389Z,95848.60
2019-02-27T17:14:58.650Z,95851.19
2019-02-27T17:17:28.057Z,95854.42
2019-02-27T17:19:57.897Z,95851.21
2019-02-27T17:22:30.273Z,95853.98
2019-02-27T17:24:59.520Z,95849.31
2019-02-27T17:27:29.446Z,95842.46
2019-02-27T17:30:01.190Z,95844.66
2019-02-27T17:32:33.127Z,95843.83
2019-02-27T17:35:03.103Z,95844.53
2019-02-27T17:37:33.049Z,95842.53
2019-02-27T17:40:03.604Z,95841.08
2019-02-27T17:42:34.073Z,95837.29
2019-02-27T17:45:04.561Z,95835.56
2019-02-27T17:47:35.754Z,95835.21
2019-02-27T17:50:07.238Z,95829.64
2019-02-27T17:52:38.239Z,95835.08
2019-02-27T17:55:08.610Z,95831.23
2019-02-27T17:57:38.691Z,95823.95
2019-02-27T18:00:16.074Z,95828.05
2019-02-27T18:02:44.578Z,95823.64
2019-02-27T18:05:14.637Z,95818.50
2019-02-27T18:07:44.697Z,95817.81
2019-02-27T18:10:14.980Z,95809.86
2019-02-27T18:12:44.906Z,95812.20
2019-02-27T18:15:20.001Z,95811.77
2019-02-27T18:17:47.245Z,95816.98
2019-02-27T18:20:18.085Z,95808.68
2019-02-27T18:22:49.565Z,95804.13
2019-02-27T18:25:19.959Z,95806.21
2019-02-27T18:27:49.912Z,95814.50
2019-02-27T18:30:19.944Z,95815.28
2019-02-27T18:32:50.004Z,95813.31
2019-02-27T18:35:20.329Z,95817.52
2019-02-27T18:37:54.308Z,95811.97
2019-02-27T18:40:22.159Z,95814.20
2019-02-27T18:42:55.260Z,95815.87
2019-02-27T18:45:24.007Z,95806.18
2019-02-27T18:47:53.975Z,95806.05
2019-02-27T18:50:24.745Z,95793.19
2019-02-27T18:52:55.717Z,95793.19
2019-02-27T18:55:29.446Z,95795.11
2019-02-27T18:57:57.371Z,95792.36
2019-02-27T19:00:27.474Z,95792.27
2019-02-27T19:02:57.581Z,95799.69
2019-02-27T19:05:27.579Z,95795.25
2019-02-27T19:07:57.608Z,95795.02
2019-02-27T19:10:27.586Z,95794.02
2019-02-27T19:12:59.976Z,95800.48
2019-02-27T19:15:29.581Z,95798.34
2019-02-27T19:17:59.609Z,95798.91
2019-02-27T19:20:31.635Z,95804.20
2019-02-27T19:23:01.703Z,95794.45
2019-02-27T19:25:34.805Z,95783.12
2019-02-27T19:28:03.784Z,95785.52
2019-02-27T19:30:34.754Z,95782.52
2019-02-27T19:33:04.984Z,95781.13
2019-02-27T19:35:34.995Z,95777.95
2019-02-27T19:38:05.701Z,95780.21
2019-02-27T19:40:36.158Z,95777.48
2019-02-27T19:43:06.642Z,95771.72
2019-02-27T19:45:36.746Z,95776.58
2019-02-27T19:48:07.821Z,95773.56
2019-02-27T19:50:37.792Z,95775.16
2019-02-27T19:53:07.784Z,95776.92
2019-02-27T19:55:37.904Z,95769.95
2019-02-27T19:58:07.899Z,95769.01
2019-02-27T20:00:39.056Z,95764.86
2019-02-27T20:03:09.545Z,95762.98
2019-02-27T20:05:40.584Z,95759.63
2019-02-27T20:08:11.130Z,95762.52
2019-02-27T20:10:41.234Z,95763.95
2019-02-27T20:13:12.224Z,95752.61
2019-02-27T20:15:42.826Z,95752.12
2019-02-27T20:18:14.196Z,95753.41
2019-02-27T20:20:44.523Z,95747.34
2019-02-27T20:23:15.831Z,95749.38
2019-02-27T20:25:45.845Z,95745.70
2019-02-27T20:28:15.764Z,95747.92
2019-02-27T20:30:46.048Z,95752.23
2019-02-27T20:33:16.065Z,95748.74
2019-02-27T20:35:46.994Z,95751.97
2019-02-27T20:38:17.048Z,95751.45
2019-02-27T20:40:47.085Z,95740.01
2019-02-27T20:43:17.086Z,95740.66
2019-02-27T20:45:47.145Z,95736.70
2019-02-27T20:48:17.004Z,95732.08
2019-02-27T20:50:47.398Z,95736.39
2019-02-27T20:53:17.400Z,95734.95
2019-02-27T20:55:47.351Z,95730.16
2019-02-27T20:58:36.511Z,95729.37
2019-02-27T21:01:11.060Z,95734.31
2019-02-27T21:03:40.964Z,95730.00
2019-02-27T21:06:12.772Z,95718.68
2019-02-27T21:08:42.535Z,95714.21
2019-02-27T21:11:12.847Z,95710.53
2019-02-27T21:13:42.760Z,95708.10
2019-02-27T21:16:12.826Z,95700.59
2019-02-27T21:18:42.822Z,95702.08
2019-02-27T21:21:12.810Z,95699.00
2019-02-27T21:23:42.652Z,95693.25
2019-02-27T21:26:12.617Z,95691.95
2019-02-27T21:28:42.464Z,95688.30
2019-02-27T21:31:12.673Z,95687.80
2019-02-27T21:33:45.671Z,95684.12
2019-02-27T21:36:14.164Z,95689.09
2019-02-27T21:38:44.015Z,95680.57
2019-02-27T21:41:14.064Z,95673.52
2019-02-27T21:43:44.948Z,95675.92
2019-02-27T21:46:14.975Z,95675.77
2019-02-27T21:48:45.063Z,95673.69
2019-02-27T21:51:15.029Z,95672.48
2019-02-27T21:53:44.933Z,95663.41
2019-02-27T21:56:15.199Z,95662.28
2019-02-27T21:58:46.579Z,95666.75
2019-02-27T22:01:19.258Z,95670.73
2019-02-27T22:03:48.195Z,95674.20
2019-02-27T22:06:18.131Z,95669.41
2019-02-27T22:08:48.045Z,95667.16
2019-02-27T22:11:17.981Z,95661.09
2019-02-27T22:13:47.977Z,95664.75
2019-02-27T22:16:17.986Z,95663.64
2019-02-27T22:18:47.934Z,95665.41
2019-02-27T22:21:17.968Z,95666.91
2019-02-27T22:23:47.847Z,95674.23
2019-02-27T22:26:17.845Z,95662.42
2019-02-27T22:28:47.681Z,95668.12
2019-02-27T22:31:17.630Z,95666.89
2019-02-27T22:33:47.606Z,95661.17
2019-02-27T22:36:17.673Z,95663.25
2019-02-27T22:38:47.523Z,95657.02
2019-02-27T22:41:17.578Z,95654.97
2019-02-27T22:43:47.454Z,95655.00
2019-02-27T22:46:17.446Z,95648.27
2019-02-27T22:48:47.472Z,95642.30
2019-02-27T22:51:17.482Z,95645.84
2019-02-27T22:53:47.351Z,95647.08
2019-02-27T22:56:17.570Z,95643.85
2019-02-27T22:58:50.889Z,95639.11
2019-02-27T23:01:26.104Z,95637.95
2019-02-27T23:03:58.766Z,95636.66
2019-02-27T23:06:28.732Z,95638.27
2019-02-27T23:08:58.871Z,95627.78
2019-02-27T23:11:28.827Z,95628.39
2019-02-27T23:13:58.866Z,95620.63
2019-02-27T23:16:29.825Z,95623.98
2019-02-27T23:19:00.594Z,95620.80
2019-02-27T23:21:30.574Z,95610.62
2019-02-27T23:24:00.615Z,95611.94
2019-02-27T23:26:30.835Z,95608.19
2019-02-27T23:29:01.833Z,95608.73
2019-02-27T23:31:31.927Z,95610.81
2019-02-27T23:34:01.987Z,95607.79
2019-02-27T23:36:31.901Z,95593.79
2019-02-27T23:39:01.858Z,95597.58
2019-02-27T23:41:33.496Z,95587.95
2019-02-27T23:44:05.386Z,95593.79
2019-02-27T23:46:35.201Z,95592.70
2019-02-27T23:49:06.549Z,95585.99
2019-02-27T23:51:36.923Z,95583.00
2019-02-27T23:54:06.911Z,95581.23
2019-02-27T23:56:36.846Z,95584.92
2019-02-27T23:59:06.884Z,95584.39
